sensor_id;sensor_type;location;lat;lon;timestamp;temperature;humidity
70068;DHT22;57425;51.616;6.680;2023-04-28T00:00:49;11.90;65.00
70068;DHT22;57425;51.616;6.680;2023-04-28T00:03:15;11.90;65.10
70068;DHT22;57425;51.616;6.680;2023-04-28T00:05:41;11.90;65.00
70068;DHT22;57425;51.616;6.680;2023-04-28T00:08:07;11.90;65.10
70068;DHT22;57425;51.616;6.680;2023-04-28T00:10:33;11.90;65.10
70068;DHT22;57425;51.616;6.680;2023-04-28T00:12:58;11.90;65.70
70068;DHT22;57425;51.616;6.680;2023-04-28T00:15:24;11.90;65.10
70068;DHT22;57425;51.616;6.680;2023-04-28T00:17:50;11.90;65.30
70068;DHT22;57425;51.616;6.680;2023-04-28T00:20:15;11.90;65.30
70068;DHT22;57425;51.616;6.680;2023-04-28T00:22:41;11.90;65.40
70068;DHT22;57425;51.616;6.680;2023-04-28T00:25:07;11.90;65.50
70068;DHT22;57425;51.616;6.680;2023-04-28T00:27:34;11.90;65.50
70068;DHT22;57425;51.616;6.680;2023-04-28T00:30:01;11.90;65.60
70068;DHT22;57425;51.616;6.680;2023-04-28T00:32:27;11.90;65.60
70068;DHT22;57425;51.616;6.680;2023-04-28T00:34:52;12.00;65.70
70068;DHT22;57425;51.616;6.680;2023-04-28T00:37:18;11.90;65.70
70068;DHT22;57425;51.616;6.680;2023-04-28T00:39:44;11.90;65.70
70068;DHT22;57425;51.616;6.680;2023-04-28T00:42:13;11.90;65.80
70068;DHT22;57425;51.616;6.680;2023-04-28T00:44:39;11.90;66.00
70068;DHT22;57425;51.616;6.680;2023-04-28T00:47:07;11.90;66.10
70068;DHT22;57425;51.616;6.680;2023-04-28T00:49:34;11.80;66.80
70068;DHT22;57425;51.616;6.680;2023-04-28T00:52:03;11.80;66.90
70068;DHT22;57425;51.616;6.680;2023-04-28T00:54:30;12.00;66.50
70068;DHT22;57425;51.616;6.680;2023-04-28T00:56:56;11.80;66.70
70068;DHT22;57425;51.616;6.680;2023-04-28T00:59:22;11.80;66.90
70068;DHT22;57425;51.616;6.680;2023-04-28T01:01:49;11.80;67.10
70068;DHT22;57425;51.616;6.680;2023-04-28T01:04:19;11.80;67.20
70068;DHT22;57425;51.616;6.680;2023-04-28T01:06:46;11.80;67.30
70068;DHT22;57425;51.616;6.680;2023-04-28T01:09:12;11.80;67.50
70068;DHT22;57425;51.616;6.680;2023-04-28T01:11:38;11.80;67.50
70068;DHT22;57425;51.616;6.680;2023-04-28T01:14:03;11.80;68.10
70068;DHT22;57425;51.616;6.680;2023-04-28T01:16:30;11.80;67.50
70068;DHT22;57425;51.616;6.680;2023-04-28T01:18:59;11.70;67.50
70068;DHT22;57425;51.616;6.680;2023-04-28T01:21:30;11.80;67.60
70068;DHT22;57425;51.616;6.680;2023-04-28T01:24:00;11.90;67.70
70068;DHT22;57425;51.616;6.680;2023-04-28T01:26:26;11.70;67.80
70068;DHT22;57425;51.616;6.680;2023-04-28T01:28:52;11.70;67.80
70068;DHT22;57425;51.616;6.680;2023-04-28T01:31:18;11.70;67.90
70068;DHT22;57425;51.616;6.680;2023-04-28T01:33:44;11.70;67.90
70068;DHT22;57425;51.616;6.680;2023-04-28T01:36:10;11.70;67.90
70068;DHT22;57425;51.616;6.680;2023-04-28T01:38:35;11.70;68.00
70068;DHT22;57425;51.616;6.680;2023-04-28T01:41:01;11.70;68.10
70068;DHT22;57425;51.616;6.680;2023-04-28T01:43:27;11.70;68.30
70068;DHT22;57425;51.616;6.680;2023-04-28T01:45:52;11.70;68.60
70068;DHT22;57425;51.616;6.680;2023-04-28T01:48:18;11.70;68.70
70068;DHT22;57425;51.616;6.680;2023-04-28T01:50:44;11.70;68.90
70068;DHT22;57425;51.616;6.680;2023-04-28T01:53:09;11.70;69.00
70068;DHT22;57425;51.616;6.680;2023-04-28T01:55:37;11.60;69.10
70068;DHT22;57425;51.616;6.680;2023-04-28T01:58:02;11.60;69.20
70068;DHT22;57425;51.616;6.680;2023-04-28T02:00:28;11.60;69.30
70068;DHT22;57425;51.616;6.680;2023-04-28T02:02:53;11.60;69.40
70068;DHT22;57425;51.616;6.680;2023-04-28T02:05:19;11.60;69.50
70068;DHT22;57425;51.616;6.680;2023-04-28T02:07:45;11.60;69.60
70068;DHT22;57425;51.616;6.680;2023-04-28T02:10:11;11.60;69.70
70068;DHT22;57425;51.616;6.680;2023-04-28T02:12:37;11.60;69.80
70068;DHT22;57425;51.616;6.680;2023-04-28T02:15:02;11.60;69.90
70068;DHT22;57425;51.616;6.680;2023-04-28T02:17:31;11.60;70.00
70068;DHT22;57425;51.616;6.680;2023-04-28T02:19:57;11.70;70.10
70068;DHT22;57425;51.616;6.680;2023-04-28T02:22:23;11.60;70.20
70068;DHT22;57425;51.616;6.680;2023-04-28T02:24:48;11.50;70.20
70068;DHT22;57425;51.616;6.680;2023-04-28T02:27:14;11.50;70.30
70068;DHT22;57425;51.616;6.680;2023-04-28T02:29:40;11.70;70.60
70068;DHT22;57425;51.616;6.680;2023-04-28T02:32:07;11.50;70.50
70068;DHT22;57425;51.616;6.680;2023-04-28T02:34:33;11.50;70.70
70068;DHT22;57425;51.616;6.680;2023-04-28T02:36:58;11.50;70.70
70068;DHT22;57425;51.616;6.680;2023-04-28T02:39:24;11.50;70.80
70068;DHT22;57425;51.616;6.680;2023-04-28T02:41:54;11.50;70.90
70068;DHT22;57425;51.616;6.680;2023-04-28T02:44:20;11.50;71.00
70068;DHT22;57425;51.616;6.680;2023-04-28T02:46:46;11.60;71.70
70068;DHT22;57425;51.616;6.680;2023-04-28T02:49:11;11.50;71.20
70068;DHT22;57425;51.616;6.680;2023-04-28T02:51:38;11.50;71.20
70068;DHT22;57425;51.616;6.680;2023-04-28T02:54:04;11.50;71.30
70068;DHT22;57425;51.616;6.680;2023-04-28T02:56:30;11.50;71.30
70068;DHT22;57425;51.616;6.680;2023-04-28T02:58:56;11.50;71.40
70068;DHT22;57425;51.616;6.680;2023-04-28T03:01:22;11.50;71.40
70068;DHT22;57425;51.616;6.680;2023-04-28T03:03:47;11.40;71.40
70068;DHT22;57425;51.616;6.680;2023-04-28T03:06:13;11.40;71.40
70068;DHT22;57425;51.616;6.680;2023-04-28T03:08:39;11.50;71.50
70068;DHT22;57425;51.616;6.680;2023-04-28T03:11:04;11.40;72.10
70068;DHT22;57425;51.616;6.680;2023-04-28T03:13:30;11.40;71.50
70068;DHT22;57425;51.616;6.680;2023-04-28T03:15:56;11.40;71.60
70068;DHT22;57425;51.616;6.680;2023-04-28T03:18:21;11.40;71.70
70068;DHT22;57425;51.616;6.680;2023-04-28T03:20:48;11.40;71.70
70068;DHT22;57425;51.616;6.680;2023-04-28T03:23:13;11.40;71.70
70068;DHT22;57425;51.616;6.680;2023-04-28T03:25:39;11.40;71.80
70068;DHT22;57425;51.616;6.680;2023-04-28T03:28:05;11.40;71.80
70068;DHT22;57425;51.616;6.680;2023-04-28T03:30:31;11.40;71.90
70068;DHT22;57425;51.616;6.680;2023-04-28T03:32:56;11.40;71.90
70068;DHT22;57425;51.616;6.680;2023-04-28T03:35:22;11.40;71.90
70068;DHT22;57425;51.616;6.680;2023-04-28T03:37:48;11.40;72.00
70068;DHT22;57425;51.616;6.680;2023-04-28T03:40:14;11.40;72.10
70068;DHT22;57425;51.616;6.680;2023-04-28T03:42:40;11.30;72.10
70068;DHT22;57425;51.616;6.680;2023-04-28T03:45:07;11.40;72.20
70068;DHT22;57425;51.616;6.680;2023-04-28T03:47:33;11.30;72.30
70068;DHT22;57425;51.616;6.680;2023-04-28T03:49:58;11.30;72.30
70068;DHT22;57425;51.616;6.680;2023-04-28T03:52:24;11.50;72.50
70068;DHT22;57425;51.616;6.680;2023-04-28T03:54:50;11.30;72.40
70068;DHT22;57425;51.616;6.680;2023-04-28T03:57:16;11.30;72.40
70068;DHT22;57425;51.616;6.680;2023-04-28T03:59:42;11.30;72.40
70068;DHT22;57425;51.616;6.680;2023-04-28T04:02:08;11.30;72.50
70068;DHT22;57425;51.616;6.680;2023-04-28T04:04:33;11.30;72.50
70068;DHT22;57425;51.616;6.680;2023-04-28T04:06:59;11.50;72.70
70068;DHT22;57425;51.616;6.680;2023-04-28T04:09:25;11.30;72.60
70068;DHT22;57425;51.616;6.680;2023-04-28T04:11:51;11.30;72.70
70068;DHT22;57425;51.616;6.680;2023-04-28T04:14:17;11.30;72.80
70068;DHT22;57425;51.616;6.680;2023-04-28T04:16:42;11.30;72.80
70068;DHT22;57425;51.616;6.680;2023-04-28T04:19:08;11.30;72.90
70068;DHT22;57425;51.616;6.680;2023-04-28T04:21:34;11.20;72.90
70068;DHT22;57425;51.616;6.680;2023-04-28T04:23:59;11.20;72.90
70068;DHT22;57425;51.616;6.680;2023-04-28T04:26:25;11.30;73.00
70068;DHT22;57425;51.616;6.680;2023-04-28T04:28:51;11.40;73.10
70068;DHT22;57425;51.616;6.680;2023-04-28T04:31:17;11.20;73.10
70068;DHT22;57425;51.616;6.680;2023-04-28T04:33:44;11.20;73.10
70068;DHT22;57425;51.616;6.680;2023-04-28T04:36:10;11.20;73.70
70068;DHT22;57425;51.616;6.680;2023-04-28T04:38:35;11.20;73.20
70068;DHT22;57425;51.616;6.680;2023-04-28T04:41:01;11.20;73.30
70068;DHT22;57425;51.616;6.680;2023-04-28T04:43:27;11.20;73.30
70068;DHT22;57425;51.616;6.680;2023-04-28T04:45:53;11.20;73.40
70068;DHT22;57425;51.616;6.680;2023-04-28T04:48:19;11.40;73.40
70068;DHT22;57425;51.616;6.680;2023-04-28T04:50:45;11.20;73.30
70068;DHT22;57425;51.616;6.680;2023-04-28T04:53:10;11.20;73.40
70068;DHT22;57425;51.616;6.680;2023-04-28T04:55:37;11.20;73.50
70068;DHT22;57425;51.616;6.680;2023-04-28T04:58:02;11.20;73.50
70068;DHT22;57425;51.616;6.680;2023-04-28T05:00:28;11.20;73.60
70068;DHT22;57425;51.616;6.680;2023-04-28T05:02:54;11.20;73.70
70068;DHT22;57425;51.616;6.680;2023-04-28T05:05:19;11.20;74.30
70068;DHT22;57425;51.616;6.680;2023-04-28T05:07:45;11.20;73.80
70068;DHT22;57425;51.616;6.680;2023-04-28T05:10:11;11.30;74.00
70068;DHT22;57425;51.616;6.680;2023-04-28T05:12:37;11.20;74.00
70068;DHT22;57425;51.616;6.680;2023-04-28T05:15:04;11.20;74.00
70068;DHT22;57425;51.616;6.680;2023-04-28T05:17:31;11.10;73.90
70068;DHT22;57425;51.616;6.680;2023-04-28T05:19:57;11.20;74.00
70068;DHT22;57425;51.616;6.680;2023-04-28T05:22:22;11.10;74.00
70068;DHT22;57425;51.616;6.680;2023-04-28T05:24:48;11.10;74.00
70068;DHT22;57425;51.616;6.680;2023-04-28T05:27:14;11.10;74.10
70068;DHT22;57425;51.616;6.680;2023-04-28T05:29:39;11.10;74.10
70068;DHT22;57425;51.616;6.680;2023-04-28T05:32:05;11.10;74.10
70068;DHT22;57425;51.616;6.680;2023-04-28T05:34:31;11.10;74.20
70068;DHT22;57425;51.616;6.680;2023-04-28T05:36:57;11.10;74.20
70068;DHT22;57425;51.616;6.680;2023-04-28T05:39:22;11.10;74.30
70068;DHT22;57425;51.616;6.680;2023-04-28T05:41:48;11.10;74.30
70068;DHT22;57425;51.616;6.680;2023-04-28T05:44:13;11.10;74.40
70068;DHT22;57425;51.616;6.680;2023-04-28T05:46:39;11.20;74.60
70068;DHT22;57425;51.616;6.680;2023-04-28T05:49:05;11.10;74.60
70068;DHT22;57425;51.616;6.680;2023-04-28T05:51:30;11.10;74.70
70068;DHT22;57425;51.616;6.680;2023-04-28T05:53:56;11.10;74.70
70068;DHT22;57425;51.616;6.680;2023-04-28T05:56:22;11.10;74.80
70068;DHT22;57425;51.616;6.680;2023-04-28T05:58:48;11.10;74.80
70068;DHT22;57425;51.616;6.680;2023-04-28T06:01:15;11.30;75.00
70068;DHT22;57425;51.616;6.680;2023-04-28T06:03:41;11.20;75.00
70068;DHT22;57425;51.616;6.680;2023-04-28T06:06:08;11.10;75.00
70068;DHT22;57425;51.616;6.680;2023-04-28T06:08:35;11.10;75.00
70068;DHT22;57425;51.616;6.680;2023-04-28T06:11:00;11.10;75.10
70068;DHT22;57425;51.616;6.680;2023-04-28T06:13:26;11.20;75.20
70068;DHT22;57425;51.616;6.680;2023-04-28T06:15:52;11.10;75.20
70068;DHT22;57425;51.616;6.680;2023-04-28T06:18:17;11.10;75.20
70068;DHT22;57425;51.616;6.680;2023-04-28T06:20:43;11.10;75.30
70068;DHT22;57425;51.616;6.680;2023-04-28T06:23:09;11.10;75.30
70068;DHT22;57425;51.616;6.680;2023-04-28T06:25:35;11.10;75.30
70068;DHT22;57425;51.616;6.680;2023-04-28T06:28:01;11.10;75.30
70068;DHT22;57425;51.616;6.680;2023-04-28T06:30:28;11.10;75.90
70068;DHT22;57425;51.616;6.680;2023-04-28T06:32:53;11.10;75.50
70068;DHT22;57425;51.616;6.680;2023-04-28T06:35:21;11.10;75.50
70068;DHT22;57425;51.616;6.680;2023-04-28T06:37:46;11.10;75.60
70068;DHT22;57425;51.616;6.680;2023-04-28T06:40:12;11.10;75.50
70068;DHT22;57425;51.616;6.680;2023-04-28T06:42:38;11.30;75.70
70068;DHT22;57425;51.616;6.680;2023-04-28T06:45:04;11.10;75.60
70068;DHT22;57425;51.616;6.680;2023-04-28T06:47:29;11.10;75.70
70068;DHT22;57425;51.616;6.680;2023-04-28T06:49:55;11.10;75.70
70068;DHT22;57425;51.616;6.680;2023-04-28T06:52:21;11.10;75.70
70068;DHT22;57425;51.616;6.680;2023-04-28T06:54:48;11.10;76.20
70068;DHT22;57425;51.616;6.680;2023-04-28T06:57:14;11.10;75.70
70068;DHT22;57425;51.616;6.680;2023-04-28T06:59:40;11.10;75.60
70068;DHT22;57425;51.616;6.680;2023-04-28T07:02:08;11.10;75.50
70068;DHT22;57425;51.616;6.680;2023-04-28T07:04:35;11.10;75.50
70068;DHT22;57425;51.616;6.680;2023-04-28T07:07:00;11.10;75.60
70068;DHT22;57425;51.616;6.680;2023-04-28T07:09:26;11.10;75.70
70068;DHT22;57425;51.616;6.680;2023-04-28T07:11:52;11.10;75.70
70068;DHT22;57425;51.616;6.680;2023-04-28T07:14:17;11.10;75.80
70068;DHT22;57425;51.616;6.680;2023-04-28T07:16:43;11.10;75.80
70068;DHT22;57425;51.616;6.680;2023-04-28T07:19:08;11.10;75.90
70068;DHT22;57425;51.616;6.680;2023-04-28T07:21:34;11.20;76.50
70068;DHT22;57425;51.616;6.680;2023-04-28T07:24:00;11.20;76.10
70068;DHT22;57425;51.616;6.680;2023-04-28T07:26:26;11.10;76.00
70068;DHT22;57425;51.616;6.680;2023-04-28T07:28:52;11.20;76.20
70068;DHT22;57425;51.616;6.680;2023-04-28T07:31:18;11.20;76.30
70068;DHT22;57425;51.616;6.680;2023-04-28T07:33:43;11.30;76.40
70068;DHT22;57425;51.616;6.680;2023-04-28T07:36:09;11.20;76.40
70068;DHT22;57425;51.616;6.680;2023-04-28T07:38:35;11.20;76.50
70068;DHT22;57425;51.616;6.680;2023-04-28T07:41:02;11.20;76.50
70068;DHT22;57425;51.616;6.680;2023-04-28T07:43:28;11.20;76.60
70068;DHT22;57425;51.616;6.680;2023-04-28T07:45:54;11.20;76.80
70068;DHT22;57425;51.616;6.680;2023-04-28T07:48:20;11.20;76.90
70068;DHT22;57425;51.616;6.680;2023-04-28T07:50:46;11.20;76.90
70068;DHT22;57425;51.616;6.680;2023-04-28T07:53:11;11.20;76.90
70068;DHT22;57425;51.616;6.680;2023-04-28T07:55:37;11.20;76.90
70068;DHT22;57425;51.616;6.680;2023-04-28T07:58:03;11.20;76.90
70068;DHT22;57425;51.616;6.680;2023-04-28T08:00:28;11.20;77.00
70068;DHT22;57425;51.616;6.680;2023-04-28T08:02:54;11.20;77.00
70068;DHT22;57425;51.616;6.680;2023-04-28T08:05:22;11.20;76.90
70068;DHT22;57425;51.616;6.680;2023-04-28T08:07:47;11.30;77.50
70068;DHT22;57425;51.616;6.680;2023-04-28T08:10:13;11.30;77.00
70068;DHT22;57425;51.616;6.680;2023-04-28T08:12:38;11.30;77.10
70068;DHT22;57425;51.616;6.680;2023-04-28T08:15:05;11.30;77.30
70068;DHT22;57425;51.616;6.680;2023-04-28T08:17:31;11.30;77.30
70068;DHT22;57425;51.616;6.680;2023-04-28T08:19:57;11.40;77.40
70068;DHT22;57425;51.616;6.680;2023-04-28T08:22:23;11.30;77.40
70068;DHT22;57425;51.616;6.680;2023-04-28T08:24:48;11.30;78.10
70068;DHT22;57425;51.616;6.680;2023-04-28T08:27:14;11.40;77.60
70068;DHT22;57425;51.616;6.680;2023-04-28T08:29:40;11.40;77.60
70068;DHT22;57425;51.616;6.680;2023-04-28T08:32:05;11.50;77.70
70068;DHT22;57425;51.616;6.680;2023-04-28T08:34:34;11.40;77.70
70068;DHT22;57425;51.616;6.680;2023-04-28T08:37:00;11.40;77.70
70068;DHT22;57425;51.616;6.680;2023-04-28T08:39:26;11.40;77.70
70068;DHT22;57425;51.616;6.680;2023-04-28T08:41:52;11.40;77.90
70068;DHT22;57425;51.616;6.680;2023-04-28T08:44:18;11.40;78.00
70068;DHT22;57425;51.616;6.680;2023-04-28T08:46:45;11.40;78.20
70068;DHT22;57425;51.616;6.680;2023-04-28T08:49:15;11.40;78.30
70068;DHT22;57425;51.616;6.680;2023-04-28T08:51:49;11.50;78.40
70068;DHT22;57425;51.616;6.680;2023-04-28T08:54:15;11.40;78.90
70068;DHT22;57425;51.616;6.680;2023-04-28T08:56:41;11.50;78.30
70068;DHT22;57425;51.616;6.680;2023-04-28T08:59:11;11.50;78.90
70068;DHT22;57425;51.616;6.680;2023-04-28T09:01:37;11.50;78.40
70068;DHT22;57425;51.616;6.680;2023-04-28T09:04:03;11.50;78.50
70068;DHT22;57425;51.616;6.680;2023-04-28T09:06:36;11.50;78.50
70068;DHT22;57425;51.616;6.680;2023-04-28T09:09:19;11.60;78.90
70068;DHT22;57425;51.616;6.680;2023-04-28T09:11:57;11.50;78.50
70068;DHT22;57425;51.616;6.680;2023-04-28T09:14:25;11.50;78.50
70068;DHT22;57425;51.616;6.680;2023-04-28T09:16:51;11.50;78.50
70068;DHT22;57425;51.616;6.680;2023-04-28T09:19:17;11.60;78.50
70068;DHT22;57425;51.616;6.680;2023-04-28T09:21:55;11.60;78.60
70068;DHT22;57425;51.616;6.680;2023-04-28T09:27:05;11.60;79.10
70068;DHT22;57425;51.616;6.680;2023-04-28T09:29:33;11.60;79.20
70068;DHT22;57425;51.616;6.680;2023-04-28T09:32:18;11.70;79.20
70068;DHT22;57425;51.616;6.680;2023-04-28T09:34:49;11.70;79.10
70068;DHT22;57425;51.616;6.680;2023-04-28T09:37:20;11.70;79.10
70068;DHT22;57425;51.616;6.680;2023-04-28T09:39:53;11.70;79.20
70068;DHT22;57425;51.616;6.680;2023-04-28T09:45:11;11.70;79.80
70068;DHT22;57425;51.616;6.680;2023-04-28T09:47:41;11.80;79.70
70068;DHT22;57425;51.616;6.680;2023-04-28T09:50:09;11.80;80.20
70068;DHT22;57425;51.616;6.680;2023-04-28T09:52:37;11.80;79.70
70068;DHT22;57425;51.616;6.680;2023-04-28T09:55:04;11.80;79.80
70068;DHT22;57425;51.616;6.680;2023-04-28T09:57:32;11.80;79.90
70068;DHT22;57425;51.616;6.680;2023-04-28T09:59:59;11.80;79.90
70068;DHT22;57425;51.616;6.680;2023-04-28T10:02:25;11.80;79.90
70068;DHT22;57425;51.616;6.680;2023-04-28T10:04:51;11.90;79.90
70068;DHT22;57425;51.616;6.680;2023-04-28T10:07:20;11.90;80.00
70068;DHT22;57425;51.616;6.680;2023-04-28T10:09:47;11.90;80.00
70068;DHT22;57425;51.616;6.680;2023-04-28T10:12:15;11.90;80.00
70068;DHT22;57425;51.616;6.680;2023-04-28T10:14:42;11.90;79.90
70068;DHT22;57425;51.616;6.680;2023-04-28T10:17:10;11.90;79.90
70068;DHT22;57425;51.616;6.680;2023-04-28T10:19:36;12.00;79.90
70068;DHT22;57425;51.616;6.680;2023-04-28T10:22:33;12.00;79.90
70068;DHT22;57425;51.616;6.680;2023-04-28T10:25:26;12.00;80.10
70068;DHT22;57425;51.616;6.680;2023-04-28T10:27:52;12.00;80.10
70068;DHT22;57425;51.616;6.680;2023-04-28T10:30:22;12.00;80.10
70068;DHT22;57425;51.616;6.680;2023-04-28T10:35:44;12.00;80.60
70068;DHT22;57425;51.616;6.680;2023-04-28T10:38:11;12.00;80.60
70068;DHT22;57425;51.616;6.680;2023-04-28T10:43:05;12.10;80.60
70068;DHT22;57425;51.616;6.680;2023-04-28T10:48:22;12.20;80.90
70068;DHT22;57425;51.616;6.680;2023-04-28T10:56:14;12.10;81.00
70068;DHT22;57425;51.616;6.680;2023-04-28T10:58:41;12.10;81.10
70068;DHT22;57425;51.616;6.680;2023-04-28T11:06:34;12.20;81.40
70068;DHT22;57425;51.616;6.680;2023-04-28T11:11:33;12.20;81.50
70068;DHT22;57425;51.616;6.680;2023-04-28T11:16:51;12.30;82.00
70068;DHT22;57425;51.616;6.680;2023-04-28T11:19:21;12.30;81.90
70068;DHT22;57425;51.616;6.680;2023-04-28T11:21:48;12.30;81.80
70068;DHT22;57425;51.616;6.680;2023-04-28T11:24:14;12.30;82.00
70068;DHT22;57425;51.616;6.680;2023-04-28T11:26:40;12.30;82.50
70068;DHT22;57425;51.616;6.680;2023-04-28T11:29:07;12.30;82.20
70068;DHT22;57425;51.616;6.680;2023-04-28T11:31:33;12.30;82.80
70068;DHT22;57425;51.616;6.680;2023-04-28T11:34:07;12.30;82.90
70068;DHT22;57425;51.616;6.680;2023-04-28T11:36:37;12.40;82.50
70068;DHT22;57425;51.616;6.680;2023-04-28T11:39:08;12.40;82.50
70068;DHT22;57425;51.616;6.680;2023-04-28T11:41:35;12.40;82.60
70068;DHT22;57425;51.616;6.680;2023-04-28T11:44:21;12.40;82.60
70068;DHT22;57425;51.616;6.680;2023-04-28T11:46:52;12.40;82.80
70068;DHT22;57425;51.616;6.680;2023-04-28T11:51:49;12.40;82.60
70068;DHT22;57425;51.616;6.680;2023-04-28T11:54:27;12.40;83.10
70068;DHT22;57425;51.616;6.680;2023-04-28T11:56:55;12.50;82.90
70068;DHT22;57425;51.616;6.680;2023-04-28T11:59:32;12.50;82.70
70068;DHT22;57425;51.616;6.680;2023-04-28T12:02:00;12.50;82.90
70068;DHT22;57425;51.616;6.680;2023-04-28T12:04:41;12.50;83.30
70068;DHT22;57425;51.616;6.680;2023-04-28T12:07:13;12.50;83.00
70068;DHT22;57425;51.616;6.680;2023-04-28T12:12:09;12.60;82.90
70068;DHT22;57425;51.616;6.680;2023-04-28T12:14:55;12.60;83.00
70068;DHT22;57425;51.616;6.680;2023-04-28T12:17:27;12.60;83.20
70068;DHT22;57425;51.616;6.680;2023-04-28T12:19:54;12.60;83.20
70068;DHT22;57425;51.616;6.680;2023-04-28T12:22:20;12.60;83.20
70068;DHT22;57425;51.616;6.680;2023-04-28T12:25:02;12.60;83.80
70068;DHT22;57425;51.616;6.680;2023-04-28T12:27:27;12.60;83.40
70068;DHT22;57425;51.616;6.680;2023-04-28T12:29:53;12.60;83.30
70068;DHT22;57425;51.616;6.680;2023-04-28T12:32:36;12.70;83.40
70068;DHT22;57425;51.616;6.680;2023-04-28T12:35:04;12.70;83.50
70068;DHT22;57425;51.616;6.680;2023-04-28T12:37:30;12.70;83.30
70068;DHT22;57425;51.616;6.680;2023-04-28T12:39:56;12.70;83.40
70068;DHT22;57425;51.616;6.680;2023-04-28T12:42:22;12.70;83.40
70068;DHT22;57425;51.616;6.680;2023-04-28T12:44:48;12.70;83.40
70068;DHT22;57425;51.616;6.680;2023-04-28T12:47:15;12.70;83.50
70068;DHT22;57425;51.616;6.680;2023-04-28T12:49:44;12.70;83.50
70068;DHT22;57425;51.616;6.680;2023-04-28T12:52:09;12.80;83.50
70068;DHT22;57425;51.616;6.680;2023-04-28T12:54:35;12.80;83.50
70068;DHT22;57425;51.616;6.680;2023-04-28T12:57:03;12.80;83.50
70068;DHT22;57425;51.616;6.680;2023-04-28T12:59:29;12.80;83.50
70068;DHT22;57425;51.616;6.680;2023-04-28T13:01:55;12.80;83.50
70068;DHT22;57425;51.616;6.680;2023-04-28T13:04:21;12.90;84.10
70068;DHT22;57425;51.616;6.680;2023-04-28T13:06:47;12.90;83.60
70068;DHT22;57425;51.616;6.680;2023-04-28T13:09:14;12.90;83.60
70068;DHT22;57425;51.616;6.680;2023-04-28T13:11:40;12.90;84.20
70068;DHT22;57425;51.616;6.680;2023-04-28T13:14:06;12.90;83.70
70068;DHT22;57425;51.616;6.680;2023-04-28T13:16:32;13.00;84.50
70068;DHT22;57425;51.616;6.680;2023-04-28T13:19:00;13.00;84.00
70068;DHT22;57425;51.616;6.680;2023-04-28T13:21:27;13.00;84.00
70068;DHT22;57425;51.616;6.680;2023-04-28T13:23:55;13.00;84.00
70068;DHT22;57425;51.616;6.680;2023-04-28T13:26:22;13.00;84.10
70068;DHT22;57425;51.616;6.680;2023-04-28T13:28:51;13.00;84.20
70068;DHT22;57425;51.616;6.680;2023-04-28T13:31:17;13.00;84.20
70068;DHT22;57425;51.616;6.680;2023-04-28T13:33:43;13.00;84.20
70068;DHT22;57425;51.616;6.680;2023-04-28T13:36:09;13.10;84.20
70068;DHT22;57425;51.616;6.680;2023-04-28T13:38:35;13.10;84.70
70068;DHT22;57425;51.616;6.680;2023-04-28T13:41:01;13.10;84.20
70068;DHT22;57425;51.616;6.680;2023-04-28T13:43:27;13.10;84.30
70068;DHT22;57425;51.616;6.680;2023-04-28T13:45:52;13.10;84.30
70068;DHT22;57425;51.616;6.680;2023-04-28T13:48:18;13.10;84.40
70068;DHT22;57425;51.616;6.680;2023-04-28T13:50:44;13.10;84.40
70068;DHT22;57425;51.616;6.680;2023-04-28T13:53:10;13.20;84.50
70068;DHT22;57425;51.616;6.680;2023-04-28T13:55:36;13.20;84.60
70068;DHT22;57425;51.616;6.680;2023-04-28T13:58:02;13.20;84.60
70068;DHT22;57425;51.616;6.680;2023-04-28T14:00:32;13.20;85.20
70068;DHT22;57425;51.616;6.680;2023-04-28T14:02:59;13.20;84.70
70068;DHT22;57425;51.616;6.680;2023-04-28T14:05:26;13.20;84.70
70068;DHT22;57425;51.616;6.680;2023-04-28T14:07:55;13.20;84.60
70068;DHT22;57425;51.616;6.680;2023-04-28T14:10:21;13.30;84.80
70068;DHT22;57425;51.616;6.680;2023-04-28T14:12:47;13.30;84.80
70068;DHT22;57425;51.616;6.680;2023-04-28T14:15:13;13.30;84.80
70068;DHT22;57425;51.616;6.680;2023-04-28T14:17:40;13.30;84.80
70068;DHT22;57425;51.616;6.680;2023-04-28T14:20:06;13.30;84.80
70068;DHT22;57425;51.616;6.680;2023-04-28T14:22:32;13.30;84.90
70068;DHT22;57425;51.616;6.680;2023-04-28T14:24:58;13.30;84.90
70068;DHT22;57425;51.616;6.680;2023-04-28T14:27:24;13.40;85.00
70068;DHT22;57425;51.616;6.680;2023-04-28T14:29:50;13.40;85.20
70068;DHT22;57425;51.616;6.680;2023-04-28T14:32:16;13.40;85.20
70068;DHT22;57425;51.616;6.680;2023-04-28T14:34:48;13.40;85.80
70068;DHT22;57425;51.616;6.680;2023-04-28T14:37:15;13.40;85.20
70068;DHT22;57425;51.616;6.680;2023-04-28T14:39:42;13.40;85.20
70068;DHT22;57425;51.616;6.680;2023-04-28T14:42:08;13.40;85.30
70068;DHT22;57425;51.616;6.680;2023-04-28T14:44:34;13.40;85.30
70068;DHT22;57425;51.616;6.680;2023-04-28T14:47:01;13.40;85.20
70068;DHT22;57425;51.616;6.680;2023-04-28T14:49:27;13.40;85.40
70068;DHT22;57425;51.616;6.680;2023-04-28T14:51:53;13.50;85.70
70068;DHT22;57425;51.616;6.680;2023-04-28T14:54:22;13.50;85.70
70068;DHT22;57425;51.616;6.680;2023-04-28T14:56:48;13.50;85.70
70068;DHT22;57425;51.616;6.680;2023-04-28T14:59:15;13.60;85.70
70068;DHT22;57425;51.616;6.680;2023-04-28T15:01:43;13.60;85.70
70068;DHT22;57425;51.616;6.680;2023-04-28T15:04:09;13.60;85.60
70068;DHT22;57425;51.616;6.680;2023-04-28T15:06:35;13.60;85.70
70068;DHT22;57425;51.616;6.680;2023-04-28T15:09:01;13.60;85.60
70068;DHT22;57425;51.616;6.680;2023-04-28T15:11:26;13.60;85.60
70068;DHT22;57425;51.616;6.680;2023-04-28T15:13:52;13.60;85.70
70068;DHT22;57425;51.616;6.680;2023-04-28T15:16:18;13.60;85.70
70068;DHT22;57425;51.616;6.680;2023-04-28T15:18:45;13.60;85.70
70068;DHT22;57425;51.616;6.680;2023-04-28T15:21:11;13.70;85.90
70068;DHT22;57425;51.616;6.680;2023-04-28T15:23:37;13.70;85.80
70068;DHT22;57425;51.616;6.680;2023-04-28T15:26:03;13.70;85.80
70068;DHT22;57425;51.616;6.680;2023-04-28T15:28:29;13.60;85.90
70068;DHT22;57425;51.616;6.680;2023-04-28T15:30:54;13.70;86.00
70068;DHT22;57425;51.616;6.680;2023-04-28T15:33:20;13.70;85.90
70068;DHT22;57425;51.616;6.680;2023-04-28T15:35:46;13.70;85.90
70068;DHT22;57425;51.616;6.680;2023-04-28T15:38:12;13.70;85.80
70068;DHT22;57425;51.616;6.680;2023-04-28T15:40:39;13.70;85.80
70068;DHT22;57425;51.616;6.680;2023-04-28T15:43:05;13.70;86.30
70068;DHT22;57425;51.616;6.680;2023-04-28T15:45:31;13.70;85.70
70068;DHT22;57425;51.616;6.680;2023-04-28T15:47:58;13.70;85.90
70068;DHT22;57425;51.616;6.680;2023-04-28T15:50:24;13.80;85.90
70068;DHT22;57425;51.616;6.680;2023-04-28T15:52:49;13.80;86.00
70068;DHT22;57425;51.616;6.680;2023-04-28T15:55:17;13.80;86.00
70068;DHT22;57425;51.616;6.680;2023-04-28T15:57:43;13.80;85.90
70068;DHT22;57425;51.616;6.680;2023-04-28T16:00:09;13.80;86.00
70068;DHT22;57425;51.616;6.680;2023-04-28T16:02:38;13.80;86.00